Glissando — MBUV6 — position and weather

sailwx.info

Track history (hours):
 
Tides and Currents Weather Stations Pressure Air Temp Water Temp Dewpoint Dewpoint Depression Visibility Wind Speed Wind Dir Waves Ship Positions

Glissando

Last reported at 2017-Sep-07 11:37 UTC. Time now 2017-Sep-25 15:25 UTC.
Position N 47°26' W 002°41'.
Warning: this ship's position is 18 days out of date.

Length 12 m.

Type: Sailing vessel. MMSI: 235074122.

Date/timePositionNaut miles runAvg speedWind from/ knotsBaromVisibWave heightAir tempDewpointWater temp
2017-Sep-07 11:37N 47°26' W 002°41'6 4.1
2017-Sep-07 10:13N 47°27' W 002°49'1 4.9
2017-Sep-07 09:56N 47°28' W 002°51'4 5.2
2017-Sep-07 09:05N 47°32' W 002°54'1 0.0
2017-Sep-06 11:10N 47°32' W 002°55'1 7.1
2017-Sep-06 11:00N 47°34' W 002°55'3 6.5
2017-Sep-06 10:29N 47°36' W 002°51'0 0.5
2017-Sep-06 09:53N 47°36' W 002°51'0 0.0
2017-Sep-06 09:29N 47°36' W 002°51'0 0.0
2017-Sep-06 08:56N 47°36' W 002°51'0 0.0
2017-Sep-06 08:29N 47°36' W 002°51'0 0.0
2017-Sep-06 07:56N 47°36' W 002°51'0 0.0
2017-Sep-06 07:26N 47°36' W 002°51'0 0.0
2017-Sep-06 06:11N 47°36' W 002°51'0 0.0
2017-Sep-06 05:59N 47°36' W 002°51'0 0.0
2017-Sep-06 05:11N 47°36' W 002°51'0 0.0
2017-Sep-06 04:38N 47°36' W 002°51'0 0.0
2017-Sep-06 04:29N 47°36' W 002°51'0 0.0
2017-Sep-06 03:59N 47°36' W 002°51'0 0.0
2017-Sep-06 03:26N 47°36' W 002°51'0 0.0
2017-Sep-06 02:59N 47°36' W 002°51'0 0.0
2017-Sep-06 02:20N 47°36' W 002°51'0 0.0
2017-Sep-06 01:53N 47°36' W 002°51'0 0.0
2017-Sep-06 01:29N 47°36' W 002°51'0 0.0
2017-Sep-06 00:56N 47°36' W 002°51'0 0.0
2017-Sep-06 00:20N 47°36' W 002°51'0 0.0
2017-Sep-05 23:53N 47°36' W 002°51'0 0.0
2017-Sep-05 23:23N 47°36' W 002°51'0 0.0
2017-Sep-05 22:56N 47°36' W 002°51'0 0.0
2017-Sep-05 22:26N 47°36' W 002°51'0 0.0
2017-Sep-05 21:56N 47°36' W 002°51'0 0.0
2017-Sep-05 21:29N 47°36' W 002°51'0 0.0
2017-Sep-05 20:59N 47°36' W 002°51'0 0.0
2017-Sep-05 20:29N 47°36' W 002°51'0 0.0
2017-Sep-05 19:53N 47°36' W 002°51'0 0.0
2017-Sep-05 17:23N 47°36' W 002°51'0 0.0
2017-Sep-05 16:47N 47°36' W 002°51'0 0.8
2017-Sep-05 16:30N 47°36' W 002°51'2 3.7
2017-Sep-05 15:58N 47°37' W 002°48'2 3.5
2017-Sep-05 15:30N 47°38' W 002°46'2 2.9
2017-Sep-05 14:58N 47°39' W 002°45'0 0.0
2017-Sep-05 14:28N 47°39' W 002°45'0 0.0
2017-Sep-05 13:58N 47°39' W 002°45'0 0.0
2017-Sep-05 13:22N 47°39' W 002°45'0 0.0
2017-Sep-05 12:58N 47°39' W 002°45'0 0.0
2017-Sep-05 12:28N 47°39' W 002°45'0 0.0
2017-Sep-05 11:59N 47°39' W 002°45'0 0.0
2017-Sep-05 11:16N 47°39' W 002°45'0 0.0
2017-Sep-05 10:49N 47°39' W 002°45'0 0.0
2017-Sep-05 10:28N 47°39' W 002°45'0 0.0
2017-Sep-05 09:58N 47°39' W 002°45'0 0.0
2017-Sep-05 08:23N 47°39' W 002°45'0 0.0
2017-Sep-05 07:58N 47°39' W 002°45'0 0.0
2017-Sep-05 07:26N 47°39' W 002°45'0 0.0
2017-Sep-05 06:58N 47°39' W 002°45'0 0.0
2017-Sep-05 06:28N 47°39' W 002°45'0 0.0
2017-Sep-05 05:59N 47°39' W 002°45'0 0.0
2017-Sep-05 05:29N 47°39' W 002°45'0 0.0
2017-Sep-05 04:59N 47°39' W 002°45'0 0.0
2017-Sep-05 04:29N 47°39' W 002°45'0 0.0
2017-Sep-05 03:56N 47°39' W 002°45'0 0.0
2017-Sep-05 03:29N 47°39' W 002°45'0 0.0
2017-Sep-05 02:59N 47°39' W 002°45'0 0.0
2017-Sep-05 02:29N 47°39' W 002°45'0 0.0
2017-Sep-05 01:59N 47°39' W 002°45'0 0.0
2017-Sep-05 01:29N 47°39' W 002°45'0 0.0
2017-Sep-05 00:59N 47°39' W 002°45'0 0.0
2017-Sep-05 00:29N 47°39' W 002°45'0 0.0
2017-Sep-04 23:59N 47°39' W 002°45'0 0.0
2017-Sep-04 23:29N 47°39' W 002°45'0 0.0
2017-Sep-04 22:59N 47°39' W 002°45'0 0.0
2017-Sep-04 22:29N 47°39' W 002°45'0 0.0
2017-Sep-04 21:59N 47°39' W 002°45'0 0.0
2017-Sep-04 21:23N 47°39' W 002°45'0 0.0
2017-Sep-04 18:32N 47°39' W 002°45'0 0.0
2017-Sep-04 18:23N 47°39' W 002°45'0 0.0
2017-Sep-04 17:50N 47°39' W 002°45'0 0.0
2017-Sep-04 17:23N 47°39' W 002°45'0 0.0
2017-Sep-04 16:53N 47°39' W 002°45'0 0.0
2017-Sep-04 16:11N 47°39' W 002°45'0 0.0
2017-Sep-04 15:59N 47°39' W 002°45'0 0.0
2017-Sep-04 15:29N 47°39' W 002°45'0 0.0
2017-Sep-04 14:59N 47°39' W 002°45'0 0.0
2017-Sep-04 14:29N 47°39' W 002°45'0 0.0
2017-Sep-04 13:47N 47°39' W 002°45'0 0.0
2017-Sep-04 13:23N 47°39' W 002°45'0 0.0
2017-Sep-04 12:50N 47°39' W 002°45'0 0.0
2017-Sep-04 12:29N 47°39' W 002°45'0 0.0
2017-Sep-04 11:56N 47°39' W 002°45'0 0.0
2017-Sep-04 11:29N 47°39' W 002°45'0 0.0
2017-Sep-04 10:59N 47°39' W 002°45'0 0.0
2017-Sep-04 10:29N 47°39' W 002°45'0 0.0
2017-Sep-04 09:59N 47°39' W 002°45'0 0.0
2017-Sep-04 09:29N 47°39' W 002°45'0 0.0
2017-Sep-04 08:59N 47°39' W 002°45'0 0.0
2017-Sep-04 08:29N 47°39' W 002°45'0 0.0
2017-Sep-04 07:59N 47°39' W 002°45'0 0.0
2017-Sep-04 07:29N 47°39' W 002°45'0 0.0
2017-Sep-04 06:59N 47°39' W 002°45'0 0.0
2017-Sep-04 06:29N 47°39' W 002°45'0 0.0
2017-Sep-04 05:59N 47°39' W 002°45'0 0.0
2017-Sep-04 05:29N 47°39' W 002°45'0 0.0
2017-Sep-04 04:59N 47°39' W 002°45'0 0.0
2017-Sep-04 04:29N 47°39' W 002°45'0 0.0
2017-Sep-04 03:59N 47°39' W 002°45'0 0.0
2017-Sep-04 03:29N 47°39' W 002°45'0 0.0
2017-Sep-04 02:59N 47°39' W 002°45'0 0.0
2017-Sep-04 02:29N 47°39' W 002°45'0 0.0
2017-Sep-04 01:59N 47°39' W 002°45'0 0.0
2017-Sep-04 01:29N 47°39' W 002°45'0 0.0
2017-Sep-04 00:59N 47°39' W 002°45'0 0.0
2017-Sep-04 00:29N 47°39' W 002°45'0 0.0
2017-Sep-03 23:59N 47°39' W 002°45'0 0.0
2017-Sep-03 23:14N 47°39' W 002°45'0 0.0
2017-Sep-03 22:59N 47°39' W 002°45'0 0.0
2017-Sep-03 22:26N 47°39' W 002°45'0 0.0
2017-Sep-03 21:59N 47°39' W 002°45'0 0.0
2017-Sep-03 21:29N 47°39' W 002°45'0 0.0
2017-Sep-03 20:47N 47°39' W 002°46'0 0.0
2017-Sep-03 20:17N 47°39' W 002°45'0 0.0
2017-Sep-03 19:59N 47°39' W 002°46'0 0.0
2017-Sep-03 19:20N 47°39' W 002°45'0 0.0
2017-Sep-03 18:53N 47°39' W 002°45'0 0.0
2017-Sep-03 18:23N 47°39' W 002°45'0 0.0
2017-Sep-03 17:59N 47°39' W 002°45'0 0.0
2017-Sep-03 17:20N 47°39' W 002°45'0 0.0
2017-Sep-03 16:50N 47°39' W 002°45'0 0.0
2017-Sep-03 16:23N 47°39' W 002°45'0 0.0
2017-Sep-03 15:56N 47°39' W 002°45'0 0.0
2017-Sep-03 15:20N 47°39' W 002°45'0 0.0
2017-Sep-03 14:53N 47°39' W 002°45'0 0.0
2017-Sep-03 13:56N 47°39' W 002°45'0 0.0
2017-Sep-03 13:26N 47°39' W 002°45'0 0.0
2017-Sep-03 12:38N 47°39' W 002°45'0 0.0
2017-Sep-03 12:23N 47°39' W 002°45'0 0.0
2017-Sep-03 11:56N 47°39' W 002°45'0 0.0
2017-Sep-03 11:26N 47°39' W 002°45'0 0.0
2017-Sep-03 10:53N 47°39' W 002°45'0 0.0
2017-Sep-03 10:17N 47°39' W 002°45'0 0.0
2017-Sep-03 09:59N 47°39' W 002°45'0 0.0
2017-Sep-03 09:29N 47°39' W 002°45'0 0.0
2017-Sep-03 08:59N 47°39' W 002°45'0 0.0
2017-Sep-03 08:29N 47°39' W 002°45'0 0.0
2017-Sep-03 07:59N 47°39' W 002°45'0 0.0
2017-Sep-03 07:29N 47°39' W 002°45'0 0.0
2017-Sep-03 06:59N 47°39' W 002°45'0 0.0
2017-Sep-03 06:29N 47°39' W 002°45'0 0.0
2017-Sep-03 05:59N 47°39' W 002°45'0 0.0
2017-Sep-03 05:29N 47°39' W 002°45'0 0.0
2017-Sep-03 04:59N 47°39' W 002°45'0 0.0
2017-Sep-03 04:29N 47°39' W 002°45'0 0.0
2017-Sep-03 03:59N 47°39' W 002°45'0 0.0
2017-Sep-03 03:29N 47°39' W 002°45'0 0.0
2017-Sep-03 02:59N 47°39' W 002°45'0 0.0
2017-Sep-03 02:29N 47°39' W 002°45'0 0.0
2017-Sep-03 01:59N 47°39' W 002°45'0 0.0
2017-Sep-03 01:23N 47°39' W 002°45'0 0.0
2017-Sep-03 00:59N 47°39' W 002°45'0 0.0
2017-Sep-03 00:29N 47°39' W 002°45'0 0.0
2017-Sep-02 23:59N 47°39' W 002°45'0 0.0
2017-Sep-02 23:29N 47°39' W 002°45'0 0.0
2017-Sep-02 22:59N 47°39' W 002°45'0 0.0
2017-Sep-02 22:29N 47°39' W 002°45'0 0.0
2017-Sep-02 21:59N 47°39' W 002°45'0 0.0
2017-Sep-02 21:29N 47°39' W 002°45'0 0.0
2017-Sep-02 20:56N 47°39' W 002°45'0 0.0
2017-Sep-02 20:26N 47°39' W 002°45'0 0.0
2017-Sep-02 19:56N 47°39' W 002°45'0 0.0
2017-Sep-02 19:29N 47°39' W 002°45'0 0.0
2017-Sep-02 18:59N 47°39' W 002°45'0 0.0
2017-Sep-02 18:29N 47°39' W 002°45'0 0.0
2017-Sep-02 17:59N 47°39' W 002°45'0 0.0
2017-Sep-02 17:23N 47°39' W 002°45'0 0.0
2017-Sep-02 16:59N 47°39' W 002°45'0 0.0
2017-Sep-02 16:29N 47°39' W 002°45'0 0.0
2017-Sep-02 15:59N 47°39' W 002°45'0 0.0
2017-Sep-02 15:29N 47°39' W 002°45'0 0.0
2017-Sep-02 14:59N 47°39' W 002°45'0 0.0
2017-Sep-02 14:30N 47°39' W 002°45'0 0.1
2017-Sep-02 13:57N 47°39' W 002°45'0 0.0
2017-Sep-02 13:27N 47°39' W 002°45'1 1.6
2017-Sep-02 13:00N 47°38' W 002°46'0 0.0
2017-Sep-02 12:30N 47°38' W 002°46'0 0.0
2017-Sep-02 12:00N 47°38' W 002°46'1 2.5
2017-Sep-02 11:30N 47°37' W 002°47'2 3.5
2017-Sep-02 11:00N 47°37' W 002°49'2 4.7
2017-Sep-02 10:30N 47°35' W 002°52'2 4.8
2017-Sep-02 10:00N 47°34' W 002°55'2 0.1
2017-Sep-01 14:11N 47°32' W 002°55'1 5.1
2017-Sep-01 14:00N 47°32' W 002°56'4 5.0
2017-Sep-01 13:12N 47°29' W 002°60'1 4.8
2017-Sep-01 13:00N 47°28' W 003°01'6 5.1
2017-Sep-01 11:50N 47°29' W 003°09'2 6.9
2017-Sep-01 11:30N 47°30' W 003°11'3 6.5
2017-Sep-01 10:59N 47°33' W 003°14'3 6.2
2017-Sep-01 10:30N 47°36' W 003°17'2 5.1
2017-Sep-01 10:00N 47°38' W 003°19'3 5.7
2017-Sep-01 09:30N 47°40' W 003°21'3 5.5
2017-Sep-01 09:00N 47°43' W 003°22'2 3.8
2017-Sep-01 08:30N 47°45' W 003°21'0 0.0
2017-Sep-01 08:00N 47°45' W 003°21'0 0.0
2017-Sep-01 07:30N 47°45' W 003°21'0 0.0
2017-Sep-01 06:57N 47°45' W 003°21'0 0.0
2017-Sep-01 06:30N 47°45' W 003°21'0 0.0
2017-Sep-01 06:00N 47°45' W 003°21'0 0.0
2017-Sep-01 05:27N 47°45' W 003°21'0 0.0
2017-Sep-01 05:00N 47°45' W 003°21'0 0.0
2017-Sep-01 04:30N 47°45' W 003°21'0 0.0
2017-Sep-01 04:00N 47°45' W 003°21'0 0.0
2017-Sep-01 03:30N 47°45' W 003°21'0 0.0
2017-Sep-01 03:00N 47°45' W 003°21'0 0.0
2017-Sep-01 02:30N 47°45' W 003°21'0 0.0
2017-Sep-01 02:00N 47°45' W 003°21'0 0.0
2017-Sep-01 01:30N 47°45' W 003°21'0 0.0
2017-Sep-01 00:57N 47°45' W 003°21'0 0.0
2017-Sep-01 00:27N 47°45' W 003°21'0 0.0
2017-Aug-31 23:54N 47°45' W 003°21'0 0.0
2017-Aug-31 23:27N 47°45' W 003°21'0 0.0
2017-Aug-31 22:57N 47°45' W 003°21'0 0.0
2017-Aug-31 22:30N 47°45' W 003°21'0 0.0
2017-Aug-31 22:00N 47°45' W 003°21'0 0.0
2017-Aug-31 21:30N 47°45' W 003°21'0 0.0
2017-Aug-31 21:00N 47°45' W 003°21'0 0.0
2017-Aug-31 20:30N 47°45' W 003°21'0 0.0
2017-Aug-31 20:00N 47°45' W 003°21'0 0.0
2017-Aug-31 19:30N 47°45' W 003°21'0 0.0
2017-Aug-31 19:00N 47°45' W 003°21'0 0.0
2017-Aug-31 18:30N 47°45' W 003°21'0 0.0
2017-Aug-31 18:00N 47°45' W 003°21'0 0.0
2017-Aug-31 17:18N 47°45' W 003°21'0 0.0
2017-Aug-31 16:54N 47°45' W 003°21'0 0.0
2017-Aug-31 16:27N 47°45' W 003°21'0 0.0
2017-Aug-31 16:00N 47°45' W 003°21'0 0.0
2017-Aug-31 15:27N 47°45' W 003°21'0 0.0
2017-Aug-31 14:48N 47°45' W 003°21'0 0.0
2017-Aug-31 14:27N 47°45' W 003°21'0 0.0
2017-Aug-31 13:57N 47°45' W 003°21'0 0.0
2017-Aug-31 13:03N 47°45' W 003°21'0 0.0
2017-Aug-31 12:57N 47°45' W 003°21'0 0.0
2017-Aug-31 12:30N 47°45' W 003°21'0 0.0
2017-Aug-31 12:00N 47°45' W 003°21'0 0.0
2017-Aug-31 11:21N 47°45' W 003°21'0 0.0
2017-Aug-31 10:57N 47°45' W 003°21'0 0.0
2017-Aug-31 09:48N 47°45' W 003°21'0 0.0
2017-Aug-31 08:45N 47°45' W 003°21'0 0.0
2017-Aug-31 08:27N 47°45' W 003°21'0 0.0
2017-Aug-31 08:00N 47°45' W 003°21'0 0.0
2017-Aug-31 07:30N 47°45' W 003°21'0 0.0
2017-Aug-31 06:45N 47°45' W 003°21'0 0.0
2017-Aug-31 01:52N 47°45' W 003°21'0 0.0
2017-Aug-31 01:28N 47°45' W 003°21'0 0.0
2017-Aug-31 00:58N 47°45' W 003°21'0 0.0
2017-Aug-31 00:28N 47°45' W 003°21'0 0.0
2017-Aug-30 21:58N 47°45' W 003°21'0 0.0
2017-Aug-30 21:28N 47°45' W 003°21'0 0.0
2017-Aug-30 20:37N 47°45' W 003°21'0 0.0
2017-Aug-30 20:16N 47°45' W 003°21'0 0.0
2017-Aug-30 19:55N 47°45' W 003°21'0 0.0
2017-Aug-30 18:16N 47°45' W 003°21'0 0.0
2017-Aug-30 17:58N 47°45' W 003°21'0 0.0
2017-Aug-30 17:28N 47°45' W 003°21'0 0.0
2017-Aug-30 16:58N 47°45' W 003°21'0 0.0
2017-Aug-30 16:25N 47°45' W 003°21'0 0.0
2017-Aug-30 14:40N 47°45' W 003°21'0 0.0
2017-Aug-30 14:25N 47°45' W 003°21'0 0.0
2017-Aug-30 13:52N 47°45' W 003°21'0 0.0
2017-Aug-30 13:28N 47°45' W 003°21'0 0.0
2017-Aug-30 12:58N 47°45' W 003°21'0 0.0
2017-Aug-30 12:16N 47°45' W 003°21'0 0.0
2017-Aug-30 11:58N 47°45' W 003°21'0 0.0
2017-Aug-30 10:31N 47°45' W 003°21'0 0.0
2017-Aug-30 10:25N 47°45' W 003°21'0 0.0
2017-Aug-30 09:52N 47°45' W 003°21'0 0.0
2017-Aug-30 09:25N 47°45' W 003°21'0 0.0
2017-Aug-30 08:49N 47°45' W 003°21'0 0.0
2017-Aug-30 07:46N 47°45' W 003°21'0 0.0
2017-Aug-30 07:07N 47°45' W 003°21'0 0.0
2017-Aug-30 06:55N 47°45' W 003°21'0 0.0
2017-Aug-30 06:25N 47°45' W 003°21'0 0.0
2017-Aug-30 01:43N 47°45' W 003°21'0 0.0
2017-Aug-30 01:22N 47°45' W 003°21'0 0.0
2017-Aug-30 00:55N 47°45' W 003°21'0 0.0
2017-Aug-30 00:19N 47°45' W 003°21'0 0.0
2017-Aug-29 23:31N 47°45' W 003°21'0 0.1
2017-Aug-29 23:25N 47°45' W 003°21'0 0.0
2017-Aug-29 22:55N 47°45' W 003°21'0 0.0
2017-Aug-29 22:28N 47°45' W 003°21'0 0.0
2017-Aug-29 21:55N 47°45' W 003°21'0 0.0
2017-Aug-29 20:23N 47°45' W 003°21'0 0.0
2017-Aug-29 16:23N 47°45' W 003°21'0 1.0
2017-Aug-29 16:00N 47°44' W 003°21'2 3.9
2017-Aug-29 15:30N 47°43' W 003°22'2 4.3
2017-Aug-29 14:59N 47°41' W 003°24'2 4.1
2017-Aug-29 14:29N 47°42' W 003°27'2 5.2
2017-Aug-29 14:00N 47°43' W 003°31'  
Track history (hours):
 
Tides and Currents Weather Stations Pressure Air Temp Water Temp Dewpoint Dewpoint Depression Visibility Wind Speed Wind Dir Waves Ship Positions

Glissando

Last reported at 2017-Sep-07 11:37 UTC. Time now 2017-Sep-25 15:25 UTC.
Position N 47°26' W 002°41'.
Warning: this ship's position is 18 days out of date.

Length 12 m.

Type: Sailing vessel. MMSI: 235074122.

Date/timePositionNaut miles runAvg speedWind from/ knotsBaromVisibWave heightAir tempDewpointWater temp
2017-Sep-07 11:37N 47°26' W 002°41'6 4.1
2017-Sep-07 10:13N 47°27' W 002°49'1 4.9
2017-Sep-07 09:56N 47°28' W 002°51'4 5.2
2017-Sep-07 09:05N 47°32' W 002°54'1 0.0
2017-Sep-06 11:10N 47°32' W 002°55'1 7.1
2017-Sep-06 11:00N 47°34' W 002°55'3 6.5
2017-Sep-06 10:29N 47°36' W 002°51'0 0.5
2017-Sep-06 09:53N 47°36' W 002°51'0 0.0
2017-Sep-06 09:29N 47°36' W 002°51'0 0.0
2017-Sep-06 08:56N 47°36' W 002°51'0 0.0
2017-Sep-06 08:29N 47°36' W 002°51'0 0.0
2017-Sep-06 07:56N 47°36' W 002°51'0 0.0
2017-Sep-06 07:26N 47°36' W 002°51'0 0.0
2017-Sep-06 06:11N 47°36' W 002°51'0 0.0
2017-Sep-06 05:59N 47°36' W 002°51'0 0.0
2017-Sep-06 05:11N 47°36' W 002°51'0 0.0
2017-Sep-06 04:38N 47°36' W 002°51'0 0.0
2017-Sep-06 04:29N 47°36' W 002°51'0 0.0
2017-Sep-06 03:59N 47°36' W 002°51'0 0.0
2017-Sep-06 03:26N 47°36' W 002°51'0 0.0
2017-Sep-06 02:59N 47°36' W 002°51'0 0.0
2017-Sep-06 02:20N 47°36' W 002°51'0 0.0
2017-Sep-06 01:53N 47°36' W 002°51'0 0.0
2017-Sep-06 01:29N 47°36' W 002°51'0 0.0
2017-Sep-06 00:56N 47°36' W 002°51'0 0.0
2017-Sep-06 00:20N 47°36' W 002°51'0 0.0
2017-Sep-05 23:53N 47°36' W 002°51'0 0.0
2017-Sep-05 23:23N 47°36' W 002°51'0 0.0
2017-Sep-05 22:56N 47°36' W 002°51'0 0.0
2017-Sep-05 22:26N 47°36' W 002°51'0 0.0
2017-Sep-05 21:56N 47°36' W 002°51'0 0.0
2017-Sep-05 21:29N 47°36' W 002°51'0 0.0
2017-Sep-05 20:59N 47°36' W 002°51'0 0.0
2017-Sep-05 20:29N 47°36' W 002°51'0 0.0
2017-Sep-05 19:53N 47°36' W 002°51'0 0.0
2017-Sep-05 17:23N 47°36' W 002°51'0 0.0
2017-Sep-05 16:47N 47°36' W 002°51'0 0.8
2017-Sep-05 16:30N 47°36' W 002°51'2 3.7
2017-Sep-05 15:58N 47°37' W 002°48'2 3.5
2017-Sep-05 15:30N 47°38' W 002°46'2 2.9
2017-Sep-05 14:58N 47°39' W 002°45'0 0.0
2017-Sep-05 14:28N 47°39' W 002°45'0 0.0
2017-Sep-05 13:58N 47°39' W 002°45'0 0.0
2017-Sep-05 13:22N 47°39' W 002°45'0 0.0
2017-Sep-05 12:58N 47°39' W 002°45'0 0.0
2017-Sep-05 12:28N 47°39' W 002°45'0 0.0
2017-Sep-05 11:59N 47°39' W 002°45'0 0.0
2017-Sep-05 11:16N 47°39' W 002°45'0 0.0
2017-Sep-05 10:49N 47°39' W 002°45'0 0.0
2017-Sep-05 10:28N 47°39' W 002°45'0 0.0
2017-Sep-05 09:58N 47°39' W 002°45'0 0.0
2017-Sep-05 08:23N 47°39' W 002°45'0 0.0
2017-Sep-05 07:58N 47°39' W 002°45'0 0.0
2017-Sep-05 07:26N 47°39' W 002°45'0 0.0
2017-Sep-05 06:58N 47°39' W 002°45'0 0.0
2017-Sep-05 06:28N 47°39' W 002°45'0 0.0
2017-Sep-05 05:59N 47°39' W 002°45'0 0.0
2017-Sep-05 05:29N 47°39' W 002°45'0 0.0
2017-Sep-05 04:59N 47°39' W 002°45'0 0.0
2017-Sep-05 04:29N 47°39' W 002°45'0 0.0
2017-Sep-05 03:56N 47°39' W 002°45'0 0.0
2017-Sep-05 03:29N 47°39' W 002°45'0 0.0
2017-Sep-05 02:59N 47°39' W 002°45'0 0.0
2017-Sep-05 02:29N 47°39' W 002°45'0 0.0
2017-Sep-05 01:59N 47°39' W 002°45'0 0.0
2017-Sep-05 01:29N 47°39' W 002°45'0 0.0
2017-Sep-05 00:59N 47°39' W 002°45'0 0.0
2017-Sep-05 00:29N 47°39' W 002°45'0 0.0
2017-Sep-04 23:59N 47°39' W 002°45'0 0.0
2017-Sep-04 23:29N 47°39' W 002°45'0 0.0
2017-Sep-04 22:59N 47°39' W 002°45'0 0.0
2017-Sep-04 22:29N 47°39' W 002°45'0 0.0
2017-Sep-04 21:59N 47°39' W 002°45'0 0.0
2017-Sep-04 21:23N 47°39' W 002°45'0 0.0
2017-Sep-04 18:32N 47°39' W 002°45'0 0.0
2017-Sep-04 18:23N 47°39' W 002°45'0 0.0
2017-Sep-04 17:50N 47°39' W 002°45'0 0.0
2017-Sep-04 17:23N 47°39' W 002°45'0 0.0
2017-Sep-04 16:53N 47°39' W 002°45'0 0.0
2017-Sep-04 16:11N 47°39' W 002°45'0 0.0
2017-Sep-04 15:59N 47°39' W 002°45'0 0.0
2017-Sep-04 15:29N 47°39' W 002°45'0 0.0
2017-Sep-04 14:59N 47°39' W 002°45'0 0.0
2017-Sep-04 14:29N 47°39' W 002°45'0 0.0
2017-Sep-04 13:47N 47°39' W 002°45'0 0.0
2017-Sep-04 13:23N 47°39' W 002°45'0 0.0
2017-Sep-04 12:50N 47°39' W 002°45'0 0.0
2017-Sep-04 12:29N 47°39' W 002°45'0 0.0
2017-Sep-04 11:56N 47°39' W 002°45'0 0.0
2017-Sep-04 11:29N 47°39' W 002°45'0 0.0
2017-Sep-04 10:59N 47°39' W 002°45'0 0.0
2017-Sep-04 10:29N 47°39' W 002°45'0 0.0
2017-Sep-04 09:59N 47°39' W 002°45'0 0.0
2017-Sep-04 09:29N 47°39' W 002°45'0 0.0
2017-Sep-04 08:59N 47°39' W 002°45'0 0.0
2017-Sep-04 08:29N 47°39' W 002°45'0 0.0
2017-Sep-04 07:59N 47°39' W 002°45'0 0.0
2017-Sep-04 07:29N 47°39' W 002°45'0 0.0
2017-Sep-04 06:59N 47°39' W 002°45'0 0.0
2017-Sep-04 06:29N 47°39' W 002°45'0 0.0
2017-Sep-04 05:59N 47°39' W 002°45'0 0.0
2017-Sep-04 05:29N 47°39' W 002°45'0 0.0
2017-Sep-04 04:59N 47°39' W 002°45'0 0.0
2017-Sep-04 04:29N 47°39' W 002°45'0 0.0
2017-Sep-04 03:59N 47°39' W 002°45'0 0.0
2017-Sep-04 03:29N 47°39' W 002°45'0 0.0
2017-Sep-04 02:59N 47°39' W 002°45'0 0.0
2017-Sep-04 02:29N 47°39' W 002°45'0 0.0
2017-Sep-04 01:59N 47°39' W 002°45'0 0.0
2017-Sep-04 01:29N 47°39' W 002°45'0 0.0
2017-Sep-04 00:59N 47°39' W 002°45'0 0.0
2017-Sep-04 00:29N 47°39' W 002°45'0 0.0
2017-Sep-03 23:59N 47°39' W 002°45'0 0.0
2017-Sep-03 23:14N 47°39' W 002°45'0 0.0
2017-Sep-03 22:59N 47°39' W 002°45'0 0.0
2017-Sep-03 22:26N 47°39' W 002°45'0 0.0
2017-Sep-03 21:59N 47°39' W 002°45'0 0.0
2017-Sep-03 21:29N 47°39' W 002°45'0 0.0
2017-Sep-03 20:47N 47°39' W 002°46'0 0.0
2017-Sep-03 20:17N 47°39' W 002°45'0 0.0
2017-Sep-03 19:59N 47°39' W 002°46'0 0.0
2017-Sep-03 19:20N 47°39' W 002°45'0 0.0
2017-Sep-03 18:53N 47°39' W 002°45'0 0.0
2017-Sep-03 18:23N 47°39' W 002°45'0 0.0
2017-Sep-03 17:59N 47°39' W 002°45'0 0.0
2017-Sep-03 17:20N 47°39' W 002°45'0 0.0
2017-Sep-03 16:50N 47°39' W 002°45'0 0.0
2017-Sep-03 16:23N 47°39' W 002°45'0 0.0
2017-Sep-03 15:56N 47°39' W 002°45'0 0.0
2017-Sep-03 15:20N 47°39' W 002°45'0 0.0
2017-Sep-03 14:53N 47°39' W 002°45'0 0.0
2017-Sep-03 13:56N 47°39' W 002°45'0 0.0
2017-Sep-03 13:26N 47°39' W 002°45'0 0.0
2017-Sep-03 12:38N 47°39' W 002°45'0 0.0
2017-Sep-03 12:23N 47°39' W 002°45'0 0.0
2017-Sep-03 11:56N 47°39' W 002°45'0 0.0
2017-Sep-03 11:26N 47°39' W 002°45'0 0.0
2017-Sep-03 10:53N 47°39' W 002°45'0 0.0
2017-Sep-03 10:17N 47°39' W 002°45'0 0.0
2017-Sep-03 09:59N 47°39' W 002°45'0 0.0
2017-Sep-03 09:29N 47°39' W 002°45'0 0.0
2017-Sep-03 08:59N 47°39' W 002°45'0 0.0
2017-Sep-03 08:29N 47°39' W 002°45'0 0.0
2017-Sep-03 07:59N 47°39' W 002°45'0 0.0
2017-Sep-03 07:29N 47°39' W 002°45'0 0.0
2017-Sep-03 06:59N 47°39' W 002°45'0 0.0
2017-Sep-03 06:29N 47°39' W 002°45'0 0.0
2017-Sep-03 05:59N 47°39' W 002°45'0 0.0
2017-Sep-03 05:29N 47°39' W 002°45'0 0.0
2017-Sep-03 04:59N 47°39' W 002°45'0 0.0
2017-Sep-03 04:29N 47°39' W 002°45'0 0.0
2017-Sep-03 03:59N 47°39' W 002°45'0 0.0
2017-Sep-03 03:29N 47°39' W 002°45'0 0.0
2017-Sep-03 02:59N 47°39' W 002°45'0 0.0
2017-Sep-03 02:29N 47°39' W 002°45'0 0.0
2017-Sep-03 01:59N 47°39' W 002°45'0 0.0
2017-Sep-03 01:23N 47°39' W 002°45'0 0.0
2017-Sep-03 00:59N 47°39' W 002°45'0 0.0
2017-Sep-03 00:29N 47°39' W 002°45'0 0.0
2017-Sep-02 23:59N 47°39' W 002°45'0 0.0
2017-Sep-02 23:29N 47°39' W 002°45'0 0.0
2017-Sep-02 22:59N 47°39' W 002°45'0 0.0
2017-Sep-02 22:29N 47°39' W 002°45'0 0.0
2017-Sep-02 21:59N 47°39' W 002°45'0 0.0
2017-Sep-02 21:29N 47°39' W 002°45'0 0.0
2017-Sep-02 20:56N 47°39' W 002°45'0 0.0
2017-Sep-02 20:26N 47°39' W 002°45'0 0.0
2017-Sep-02 19:56N 47°39' W 002°45'0 0.0
2017-Sep-02 19:29N 47°39' W 002°45'0 0.0
2017-Sep-02 18:59N 47°39' W 002°45'0 0.0
2017-Sep-02 18:29N 47°39' W 002°45'0 0.0
2017-Sep-02 17:59N 47°39' W 002°45'0 0.0
2017-Sep-02 17:23N 47°39' W 002°45'0 0.0
2017-Sep-02 16:59N 47°39' W 002°45'0 0.0
2017-Sep-02 16:29N 47°39' W 002°45'0 0.0
2017-Sep-02 15:59N 47°39' W 002°45'0 0.0
2017-Sep-02 15:29N 47°39' W 002°45'0 0.0
2017-Sep-02 14:59N 47°39' W 002°45'0 0.0
2017-Sep-02 14:30N 47°39' W 002°45'0 0.1
2017-Sep-02 13:57N 47°39' W 002°45'0 0.0
2017-Sep-02 13:27N 47°39' W 002°45'1 1.6
2017-Sep-02 13:00N 47°38' W 002°46'0 0.0
2017-Sep-02 12:30N 47°38' W 002°46'0 0.0
2017-Sep-02 12:00N 47°38' W 002°46'1 2.5
2017-Sep-02 11:30N 47°37' W 002°47'2 3.5
2017-Sep-02 11:00N 47°37' W 002°49'2 4.7
2017-Sep-02 10:30N 47°35' W 002°52'2 4.8
2017-Sep-02 10:00N 47°34' W 002°55'2 0.1
2017-Sep-01 14:11N 47°32' W 002°55'1 5.1
2017-Sep-01 14:00N 47°32' W 002°56'4 5.0
2017-Sep-01 13:12N 47°29' W 002°60'1 4.8
2017-Sep-01 13:00N 47°28' W 003°01'6 5.1
2017-Sep-01 11:50N 47°29' W 003°09'2 6.9
2017-Sep-01 11:30N 47°30' W 003°11'3 6.5
2017-Sep-01 10:59N 47°33' W 003°14'3 6.2
2017-Sep-01 10:30N 47°36' W 003°17'2 5.1
2017-Sep-01 10:00N 47°38' W 003°19'3 5.7
2017-Sep-01 09:30N 47°40' W 003°21'3 5.5
2017-Sep-01 09:00N 47°43' W 003°22'2 3.8
2017-Sep-01 08:30N 47°45' W 003°21'0 0.0
2017-Sep-01 08:00N 47°45' W 003°21'0 0.0
2017-Sep-01 07:30N 47°45' W 003°21'0 0.0
2017-Sep-01 06:57N 47°45' W 003°21'0 0.0
2017-Sep-01 06:30N 47°45' W 003°21'0 0.0
2017-Sep-01 06:00N 47°45' W 003°21'0 0.0
2017-Sep-01 05:27N 47°45' W 003°21'0 0.0
2017-Sep-01 05:00N 47°45' W 003°21'0 0.0
2017-Sep-01 04:30N 47°45' W 003°21'0 0.0
2017-Sep-01 04:00N 47°45' W 003°21'0 0.0
2017-Sep-01 03:30N 47°45' W 003°21'0 0.0
2017-Sep-01 03:00N 47°45' W 003°21'0 0.0
2017-Sep-01 02:30N 47°45' W 003°21'0 0.0
2017-Sep-01 02:00N 47°45' W 003°21'0 0.0
2017-Sep-01 01:30N 47°45' W 003°21'0 0.0
2017-Sep-01 00:57N 47°45' W 003°21'0 0.0
2017-Sep-01 00:27N 47°45' W 003°21'0 0.0
2017-Aug-31 23:54N 47°45' W 003°21'0 0.0
2017-Aug-31 23:27N 47°45' W 003°21'0 0.0
2017-Aug-31 22:57N 47°45' W 003°21'0 0.0
2017-Aug-31 22:30N 47°45' W 003°21'0 0.0
2017-Aug-31 22:00N 47°45' W 003°21'0 0.0
2017-Aug-31 21:30N 47°45' W 003°21'0 0.0
2017-Aug-31 21:00N 47°45' W 003°21'0 0.0
2017-Aug-31 20:30N 47°45' W 003°21'0 0.0
2017-Aug-31 20:00N 47°45' W 003°21'0 0.0
2017-Aug-31 19:30N 47°45' W 003°21'0 0.0
2017-Aug-31 19:00N 47°45' W 003°21'0 0.0
2017-Aug-31 18:30N 47°45' W 003°21'0 0.0
2017-Aug-31 18:00N 47°45' W 003°21'0 0.0
2017-Aug-31 17:18N 47°45' W 003°21'0 0.0
2017-Aug-31 16:54N 47°45' W 003°21'0 0.0
2017-Aug-31 16:27N 47°45' W 003°21'0 0.0
2017-Aug-31 16:00N 47°45' W 003°21'0 0.0
2017-Aug-31 15:27N 47°45' W 003°21'0 0.0
2017-Aug-31 14:48N 47°45' W 003°21'0 0.0
2017-Aug-31 14:27N 47°45' W 003°21'0 0.0
2017-Aug-31 13:57N 47°45' W 003°21'0 0.0
2017-Aug-31 13:03N 47°45' W 003°21'0 0.0
2017-Aug-31 12:57N 47°45' W 003°21'0 0.0
2017-Aug-31 12:30N 47°45' W 003°21'0 0.0
2017-Aug-31 12:00N 47°45' W 003°21'0 0.0
2017-Aug-31 11:21N 47°45' W 003°21'0 0.0
2017-Aug-31 10:57N 47°45' W 003°21'0 0.0
2017-Aug-31 09:48N 47°45' W 003°21'0 0.0
2017-Aug-31 08:45N 47°45' W 003°21'0 0.0
2017-Aug-31 08:27N 47°45' W 003°21'0 0.0
2017-Aug-31 08:00N 47°45' W 003°21'0 0.0
2017-Aug-31 07:30N 47°45' W 003°21'0 0.0
2017-Aug-31 06:45N 47°45' W 003°21'0 0.0
2017-Aug-31 01:52N 47°45' W 003°21'0 0.0
2017-Aug-31 01:28N 47°45' W 003°21'0 0.0
2017-Aug-31 00:58N 47°45' W 003°21'0 0.0
2017-Aug-31 00:28N 47°45' W 003°21'0 0.0
2017-Aug-30 21:58N 47°45' W 003°21'0 0.0
2017-Aug-30 21:28N 47°45' W 003°21'0 0.0
2017-Aug-30 20:37N 47°45' W 003°21'0 0.0
2017-Aug-30 20:16N 47°45' W 003°21'0 0.0
2017-Aug-30 19:55N 47°45' W 003°21'0 0.0
2017-Aug-30 18:16N 47°45' W 003°21'0 0.0
2017-Aug-30 17:58N 47°45' W 003°21'0 0.0
2017-Aug-30 17:28N 47°45' W 003°21'0 0.0
2017-Aug-30 16:58N 47°45' W 003°21'0 0.0
2017-Aug-30 16:25N 47°45' W 003°21'0 0.0
2017-Aug-30 14:40N 47°45' W 003°21'0 0.0
2017-Aug-30 14:25N 47°45' W 003°21'0 0.0
2017-Aug-30 13:52N 47°45' W 003°21'0 0.0
2017-Aug-30 13:28N 47°45' W 003°21'0 0.0
2017-Aug-30 12:58N 47°45' W 003°21'0 0.0
2017-Aug-30 12:16N 47°45' W 003°21'0 0.0
2017-Aug-30 11:58N 47°45' W 003°21'0 0.0
2017-Aug-30 10:31N 47°45' W 003°21'0 0.0
2017-Aug-30 10:25N 47°45' W 003°21'0 0.0
2017-Aug-30 09:52N 47°45' W 003°21'0 0.0
2017-Aug-30 09:25N 47°45' W 003°21'0 0.0
2017-Aug-30 08:49N 47°45' W 003°21'0 0.0
2017-Aug-30 07:46N 47°45' W 003°21'0 0.0
2017-Aug-30 07:07N 47°45' W 003°21'0 0.0
2017-Aug-30 06:55N 47°45' W 003°21'0 0.0
2017-Aug-30 06:25N 47°45' W 003°21'0 0.0
2017-Aug-30 01:43N 47°45' W 003°21'0 0.0
2017-Aug-30 01:22N 47°45' W 003°21'0 0.0
2017-Aug-30 00:55N 47°45' W 003°21'0 0.0
2017-Aug-30 00:19N 47°45' W 003°21'0 0.0
2017-Aug-29 23:31N 47°45' W 003°21'0 0.1
2017-Aug-29 23:25N 47°45' W 003°21'0 0.0
2017-Aug-29 22:55N 47°45' W 003°21'0 0.0
2017-Aug-29 22:28N 47°45' W 003°21'0 0.0
2017-Aug-29 21:55N 47°45' W 003°21'0 0.0
2017-Aug-29 20:23N 47°45' W 003°21'0 0.0
2017-Aug-29 16:23N 47°45' W 003°21'0 1.0
2017-Aug-29 16:00N 47°44' W 003°21'2 3.9
2017-Aug-29 15:30N 47°43' W 003°22'2 4.3
2017-Aug-29 14:59N 47°41' W 003°24'2 4.1
2017-Aug-29 14:29N 47°42' W 003°27'2 5.2
2017-Aug-29 14:00N 47°43' W 003°31'  

Dump ship's entire track history